Quiroga, Argentina
Current Conditions -  °F | °C
As of 5:00 PM on Saturday 25 Oct 2014 (Local Time) from SAEZ Reporting Station
Broken Clouds Broken Clouds  
Wind Chill: 86°   Ceiling: 20000
Heat Index: 86°   Visibility: 6mi
Dew Point: 61°   Wind: 12mph
Humidity: 43%   Direction: 70°ENE
Pressure: 29.85"   Gusts: NA
Location:  35.25°S, 61.32°W
Report Text: SAEZ 252000Z 07010KT 030V090 9999 FEW049 BKN200 30/16 Q1011
Loading
Personal Weather Stations






























Interactive Weather Map
Tropical Storm Tracking
New forecast layout! Learn more

10-Day Weather Forecast

Advertisements
Track Severe Weather on mobile